Flight Track Log - Related Links

Times and Time Zones

All times are in EDT time to prevent confusion due to time zone crossing. See the SKW6492 flight status page for this flight to view local times or setup timezone preferences in your user account.

Time Position Orientation Groundspeed Altitude Reporting Facility
EDT Latitude Longitude Course Direction KTS MPH feet Rate Location/Type
Sat 09:55:00 PM 40.1248 -104.8989 327° Northwest  Level Estimated
Sat 09:56:00 PM 40.2124 -104.9745 327° Northwest  Level Estimated
Sat 09:57:00 PM 40.3000 -105.0503 327° Northwest  Level Estimated
Sat 09:58:00 PM 40.3875 -105.1263 327° Northwest  Level Estimated
Sat 09:59:00 PM 40.4749 -105.2025 326° Northwest  Level Estimated
Sat 10:00:00 PM 40.5623 -105.2789 326° Northwest  Level Estimated
Sat 10:01:00 PM 40.6497 -105.3556 326° Northwest  Level Estimated
Sat 10:02:00 PM 40.7370 -105.4324 326° Northwest  Level Estimated
Sat 10:03:00 PM 40.8243 -105.5094 326° Northwest  Level Estimated
Sat 10:04:00 PM 40.9115 -105.5866 326° Northwest  Level Estimated
Sat 10:05:00 PM 40.9986 -105.6640 326° Northwest  Level Estimated
Sat 10:06:00 PM 41.0857 -105.7416 326° Northwest  Level Estimated
Sat 10:07:00 PM 41.1728 -105.8195 326° Northwest  Level Estimated
Sat 10:08:00 PM 41.2598 -105.8975 326° Northwest  Level Estimated
Sat 10:09:00 PM 41.3467 -105.9758 326° Northwest  Level Estimated
Sat 10:10:00 PM 41.4336 -106.0542 326° Northwest  Level Estimated
Sat 10:11:00 PM 41.5205 -106.1329 326° Northwest  Level Estimated
Sat 10:12:00 PM 41.6073 -106.2118 326° Northwest  Level Estimated
Sat 10:13:00 PM 41.6940 -106.2909 326° Northwest  Level Estimated
Sat 10:14:00 PM 41.7807 -106.3702 326° Northwest  Level Estimated
Sat 10:15:00 PM 41.8673 -106.4497 326° Northwest  Level Estimated
Sat 10:16:00 PM 41.9539 -106.5294 326° Northwest  Level Estimated
Sat 10:17:00 PM 42.0404 -106.6094 326° Northwest  Level Estimated
Sat 10:18:00 PM 42.1268 -106.6895 325° Northwest  Level Estimated
Sat 10:19:00 PM 42.2132 -106.7699 325° Northwest  Level Estimated
Sat 10:20:00 PM 42.2996 -106.8505 325° Northwest  Level Estimated
Sat 10:21:00 PM 42.3859 -106.9314 325° Northwest  Level Estimated
Sat 10:22:00 PM 42.4721 -107.0124 325° Northwest  Level Estimated
Sat 10:23:00 PM 42.5583 -107.0937 325° Northwest  Level Estimated
Sat 10:24:00 PM 42.6444 -107.1752 325° Northwest  Level Estimated
Sat 10:25:00 PM 42.7304 -107.2569 325° Northwest  Level Estimated
Sat 10:26:00 PM 42.8164 -107.3389 325° Northwest  Level Estimated
Sat 10:27:00 PM 42.9024 -107.4210 325° Northwest  Level Estimated
Sat 10:28:00 PM 42.9883 -107.5034 325° Northwest  Level Estimated
Sat 10:29:00 PM 43.0741 -107.5861 325° Northwest  Level Estimated
Sat 10:30:00 PM 43.1599 -107.6690 325° Northwest  Level Estimated
Sat 10:31:00 PM 43.2455 -107.7521 325° Northwest  Level Estimated
Sat 10:32:00 PM 43.3312 -107.8354 325° Northwest  Level Estimated
Sat 10:33:00 PM 43.4168 -107.9190 325° Northwest  Level Estimated
Sat 10:34:00 PM 43.5023 -108.0028 325° Northwest  Level Estimated
Sat 10:35:00 PM 43.5877 -108.0868 325° Northwest  Level Estimated
Sat 10:36:00 PM 43.6731 -108.1711 324° Northwest  Level Estimated
Sat 10:37:00 PM 43.7585 -108.2556 324° Northwest  Level Estimated
Sat 10:38:00 PM 43.8438 -108.3404 324° Northwest  Level Estimated
Sat 10:39:00 PM 43.9290 -108.4254 324° Northwest  Level Estimated
Sat 10:40:00 PM 44.0141 -108.5107 324° Northwest  Level Estimated
Sat 10:41:00 PM 44.0992 -108.5962 324° Northwest  Level Estimated
Sat 10:42:00 PM 44.1842 -108.6819 324° Northwest  Level Estimated
Sat 10:43:00 PM 44.2692 -108.7679 324° Northwest  Level Estimated
Sat 10:44:00 PM 44.3541 -108.8541 324° Northwest  Level Estimated
Sat 10:45:00 PM 44.4389 -108.9406 324° Northwest  Level Estimated
Sat 10:46:00 PM 44.5202 -109.0238 324° Northwest  Level Estimated
Sat 10:47:00 PM 44.5202 -109.0238 35° Northeast  Level Estimated
Sat 10:48:00 PM 44.5202 -109.0238 35° Northeast  Level Estimated
Sat 10:49:00 PM 44.5202 -109.0238 35° Northeast  Level Estimated

Login

Don't have an account? Register now (free) for customized features, flight alerts, and more!